NSZ2613 ESSA-EFHK
Flight info
| Callsign | NSZ2613 |
|---|---|
| Flight time | 0h 45m |
| Altitude | 27000 |
| Route | TOVRI N851 RIKUM DCT RIRIP Y364 LAKUT |
| Aircraft | B738/M-SDE2E3GHILRWXY/LB1 |
Departure
| Time | 2026-05-06 12:22 |
|---|---|
| Airport | Stockholm-Arlanda Airport (ESSA) |
Arrival
| Time | 2026-05-06 13:08 |
|---|---|
| Airport | Helsinki Vantaa Airport (EFHK) |
| Time | Latitude | Longitude | Altitude | Speed | Heading |
|---|---|---|---|---|---|
| 2026-05-06 11:58 | 59.64723 | 17.92696 | 145 ft | 0 kts | 30° |
| 2026-05-06 12:00 | 59.64723 | 17.92697 | 145 ft | 0 kts | 30° |
| 2026-05-06 12:05 | 59.64724 | 17.92697 | 145 ft | 0 kts | 30° |
| 2026-05-06 12:07 | 59.64724 | 17.92698 | 145 ft | 0 kts | 30° |
| 2026-05-06 12:10 | 59.64722 | 17.92695 | 145 ft | 2 kts | 30° |
| 2026-05-06 12:10 | 59.64708 | 17.92679 | 145 ft | 2 kts | 30° |
| 2026-05-06 12:10 | 59.64694 | 17.92663 | 145 ft | 2 kts | 29° |
| 2026-05-06 12:10 | 59.64679 | 17.92653 | 145 ft | 2 kts | 353° |
| 2026-05-06 12:11 | 59.64670 | 17.92664 | 145 ft | 1 kts | 292° |
| 2026-05-06 12:11 | 59.64668 | 17.92671 | 145 ft | 0 kts | 287° |
| 2026-05-06 12:13 | 59.64675 | 17.92628 | 145 ft | 7 kts | 288° |
| 2026-05-06 12:14 | 59.64690 | 17.92541 | 145 ft | 5 kts | 289° |
| 2026-05-06 12:14 | 59.64703 | 17.92468 | 145 ft | 8 kts | 290° |
| 2026-05-06 12:14 | 59.64719 | 17.92366 | 145 ft | 6 kts | 288° |
| 2026-05-06 12:14 | 59.64731 | 17.92295 | 145 ft | 5 kts | 287° |
| 2026-05-06 12:15 | 59.64742 | 17.92222 | 145 ft | 4 kts | 285° |
| 2026-05-06 12:15 | 59.64753 | 17.92141 | 145 ft | 9 kts | 286° |
| 2026-05-06 12:15 | 59.64775 | 17.92083 | 145 ft | 3 kts | 342° |
| 2026-05-06 12:15 | 59.64832 | 17.92095 | 145 ft | 12 kts | 10° |
| 2026-05-06 12:16 | 59.64900 | 17.92121 | 145 ft | 11 kts | 12° |
| 2026-05-06 12:16 | 59.64990 | 17.92160 | 145 ft | 15 kts | 13° |
| 2026-05-06 12:16 | 59.65071 | 17.92197 | 145 ft | 8 kts | 9° |
| 2026-05-06 12:16 | 59.65113 | 17.92210 | 145 ft | 10 kts | 6° |
| 2026-05-06 12:17 | 59.65203 | 17.92229 | 145 ft | 14 kts | 8° |
| 2026-05-06 12:17 | 59.65307 | 17.92263 | 145 ft | 17 kts | 10° |
| 2026-05-06 12:17 | 59.65423 | 17.92311 | 145 ft | 19 kts | 12° |
| 2026-05-06 12:17 | 59.65536 | 17.92354 | 145 ft | 13 kts | 9° |
| 2026-05-06 12:18 | 59.65618 | 17.92380 | 145 ft | 17 kts | 10° |
| 2026-05-06 12:18 | 59.65761 | 17.92438 | 145 ft | 20 kts | 13° |
| 2026-05-06 12:18 | 59.65856 | 17.92484 | 145 ft | 0 kts | 13° |
| 2026-05-06 12:19 | 59.65857 | 17.92484 | 145 ft | 1 kts | 13° |
| 2026-05-06 12:19 | 59.65927 | 17.92514 | 145 ft | 19 kts | 12° |
| 2026-05-06 12:19 | 59.66077 | 17.92569 | 145 ft | 23 kts | 6° |
| 2026-05-06 12:19 | 59.66232 | 17.92601 | 145 ft | 22 kts | 6° |
| 2026-05-06 12:20 | 59.66378 | 17.92650 | 145 ft | 21 kts | 15° |
| 2026-05-06 12:20 | 59.66516 | 17.92714 | 145 ft | 20 kts | 1° |
| 2026-05-06 12:20 | 59.66615 | 17.92587 | 145 ft | 7 kts | 279° |
| 2026-05-06 12:20 | 59.66616 | 17.92581 | 145 ft | 0 kts | 277° |
| 2026-05-06 12:21 | 59.66618 | 17.92546 | 145 ft | 9 kts | 277° |
| 2026-05-06 12:21 | 59.66614 | 17.92395 | 145 ft | 1 kts | 187° |
| 2026-05-06 12:21 | 59.66571 | 17.92384 | 145 ft | 17 kts | 187° |
| 2026-05-06 12:21 | 59.66389 | 17.92311 | 145 ft | 36 kts | 193° |
| 2026-05-06 12:22 | 59.66030 | 17.92179 | 145 ft | 80 kts | 191° |
| 2026-05-06 12:22 | 59.65239 | 17.91868 | 146 ft | 148 kts | 191° |
| 2026-05-06 12:22 | 59.64090 | 17.91476 | 476 ft | 179 kts | 188° |
| 2026-05-06 12:22 | 59.62766 | 17.91190 | 1094 ft | 204 kts | 184° |
| 2026-05-06 12:23 | 59.61244 | 17.91235 | 1651 ft | 228 kts | 176° |
| 2026-05-06 12:23 | 59.59709 | 17.91686 | 2752 ft | 216 kts | 170° |
| 2026-05-06 12:23 | 59.58419 | 17.92286 | 4524 ft | 160 kts | 166° |
| 2026-05-06 12:23 | 59.57465 | 17.92819 | 5739 ft | 134 kts | 175° |
| 2026-05-06 12:24 | 59.56461 | 17.92767 | 5803 ft | 173 kts | 185° |
| 2026-05-06 12:24 | 59.55088 | 17.92941 | 5841 ft | 216 kts | 166° |
| 2026-05-06 12:24 | 59.53724 | 17.94374 | 6292 ft | 231 kts | 139° |
| 2026-05-06 12:24 | 59.52862 | 17.97034 | 7022 ft | 235 kts | 109° |
| 2026-05-06 12:25 | 59.52766 | 18.00251 | 7727 ft | 240 kts | 75° |
| 2026-05-06 12:25 | 59.53634 | 18.03092 | 8341 ft | 251 kts | 39° |
| 2026-05-06 12:25 | 59.55236 | 18.04588 | 8816 ft | 266 kts | 10° |
| 2026-05-06 12:25 | 59.57086 | 18.05234 | 9459 ft | 278 kts | 14° |
| 2026-05-06 12:26 | 59.58812 | 18.07146 | 10191 ft | 291 kts | 41° |
| 2026-05-06 12:26 | 59.60127 | 18.10233 | 10838 ft | 306 kts | 51° |
| 2026-05-06 12:26 | 59.61321 | 18.13939 | 11204 ft | 330 kts | 61° |
| 2026-05-06 12:26 | 59.62253 | 18.18180 | 11597 ft | 349 kts | 67° |
| 2026-05-06 12:27 | 59.63115 | 18.22817 | 12213 ft | 360 kts | 69° |
| 2026-05-06 12:27 | 59.63915 | 18.27496 | 12885 ft | 368 kts | 70° |
| 2026-05-06 12:27 | 59.64751 | 18.32365 | 13579 ft | 375 kts | 70° |
| 2026-05-06 12:27 | 59.65602 | 18.37301 | 14266 ft | 382 kts | 70° |
| 2026-05-06 12:28 | 59.66466 | 18.42305 | 14923 ft | 389 kts | 70° |
| 2026-05-06 12:28 | 59.67355 | 18.47435 | 15569 ft | 396 kts | 70° |
| 2026-05-06 12:28 | 59.68300 | 18.52629 | 16206 ft | 402 kts | 66° |
| 2026-05-06 12:28 | 59.69504 | 18.57648 | 16822 ft | 407 kts | 59° |
| 2026-05-06 12:29 | 59.70938 | 18.62451 | 17422 ft | 413 kts | 56° |
| 2026-05-06 12:29 | 59.72411 | 18.67457 | 18016 ft | 420 kts | 58° |
| 2026-05-06 12:29 | 59.73832 | 18.72513 | 18624 ft | 425 kts | 58° |
| 2026-05-06 12:29 | 59.75292 | 18.77666 | 19225 ft | 430 kts | 57° |
| 2026-05-06 12:30 | 59.76926 | 18.82687 | 19803 ft | 434 kts | 52° |
| 2026-05-06 12:30 | 59.78704 | 18.87619 | 20366 ft | 440 kts | 51° |
| 2026-05-06 12:30 | 59.80517 | 18.92518 | 20915 ft | 445 kts | 51° |
| 2026-05-06 12:30 | 59.82333 | 18.97553 | 21458 ft | 450 kts | 52° |
| 2026-05-06 12:31 | 59.84114 | 19.02680 | 22011 ft | 454 kts | 53° |
| 2026-05-06 12:31 | 59.85893 | 19.07867 | 22669 ft | 455 kts | 53° |
| 2026-05-06 12:31 | 59.87684 | 19.13110 | 23335 ft | 455 kts | 53° |
| 2026-05-06 12:31 | 59.89448 | 19.18286 | 23922 ft | 457 kts | 53° |
| 2026-05-06 12:32 | 59.91236 | 19.23538 | 24514 ft | 459 kts | 53° |
| 2026-05-06 12:32 | 59.93031 | 19.28818 | 25065 ft | 461 kts | 53° |
| 2026-05-06 12:32 | 59.94835 | 19.34168 | 25577 ft | 465 kts | 55° |
| 2026-05-06 12:32 | 59.96436 | 19.39805 | 26110 ft | 467 kts | 63° |
| 2026-05-06 12:33 | 59.97718 | 19.45711 | 26695 ft | 466 kts | 70° |
| 2026-05-06 12:33 | 59.98690 | 19.51884 | 26930 ft | 465 kts | 77° |
| 2026-05-06 12:33 | 59.99430 | 19.58173 | 27011 ft | 464 kts | 80° |
| 2026-05-06 12:33 | 60.00082 | 19.64407 | 27017 ft | 462 kts | 81° |
| 2026-05-06 12:34 | 60.00763 | 19.70684 | 27021 ft | 462 kts | 80° |
| 2026-05-06 12:34 | 60.01467 | 19.76970 | 27023 ft | 462 kts | 80° |
| 2026-05-06 12:34 | 60.02182 | 19.83256 | 27023 ft | 463 kts | 80° |
| 2026-05-06 12:34 | 60.02901 | 19.89537 | 27023 ft | 463 kts | 80° |
| 2026-05-06 12:35 | 60.03612 | 19.95734 | 27023 ft | 463 kts | 80° |
| 2026-05-06 12:35 | 60.04335 | 20.02039 | 27023 ft | 462 kts | 80° |
| 2026-05-06 12:35 | 60.05056 | 20.08304 | 27023 ft | 463 kts | 79° |
| 2026-05-06 12:35 | 60.05833 | 20.14551 | 27023 ft | 463 kts | 78° |
| 2026-05-06 12:36 | 60.06609 | 20.20811 | 27023 ft | 463 kts | 79° |
| 2026-05-06 12:36 | 60.07357 | 20.27027 | 27023 ft | 463 kts | 79° |
| 2026-05-06 12:36 | 60.08098 | 20.33326 | 27023 ft | 462 kts | 79° |
| 2026-05-06 12:36 | 60.08828 | 20.39605 | 27023 ft | 463 kts | 79° |
| 2026-05-06 12:37 | 60.09545 | 20.45835 | 27023 ft | 463 kts | 79° |
| 2026-05-06 12:37 | 60.10265 | 20.52139 | 27023 ft | 463 kts | 79° |
| 2026-05-06 12:37 | 60.10982 | 20.58443 | 27023 ft | 463 kts | 79° |
| 2026-05-06 12:37 | 60.11694 | 20.64748 | 27023 ft | 463 kts | 79° |
| 2026-05-06 12:38 | 60.12398 | 20.71009 | 27023 ft | 463 kts | 79° |
| 2026-05-06 12:38 | 60.13103 | 20.77311 | 27024 ft | 463 kts | 79° |
| 2026-05-06 12:38 | 60.13830 | 20.83629 | 27023 ft | 463 kts | 78° |
| 2026-05-06 12:38 | 60.14580 | 20.89921 | 27024 ft | 463 kts | 79° |
| 2026-05-06 12:39 | 60.15275 | 20.96163 | 27024 ft | 463 kts | 79° |
| 2026-05-06 12:39 | 60.15962 | 21.02494 | 27024 ft | 463 kts | 79° |
| 2026-05-06 12:39 | 60.16639 | 21.08817 | 27024 ft | 463 kts | 80° |
| 2026-05-06 12:39 | 60.17311 | 21.15134 | 27024 ft | 464 kts | 80° |
| 2026-05-06 12:40 | 60.17987 | 21.21507 | 27024 ft | 463 kts | 80° |
| 2026-05-06 12:40 | 60.18652 | 21.27801 | 27024 ft | 463 kts | 80° |
| 2026-05-06 12:40 | 60.19097 | 21.32011 | 27024 ft | 463 kts | 80° |
| 2026-05-06 12:40 | 60.19990 | 21.40450 | 27024 ft | 463 kts | 80° |
| 2026-05-06 12:41 | 60.20655 | 21.46778 | 27024 ft | 462 kts | 80° |
| 2026-05-06 12:41 | 60.21093 | 21.50961 | 27022 ft | 457 kts | 80° |
| 2026-05-06 12:41 | 60.21733 | 21.57148 | 27017 ft | 446 kts | 80° |
| 2026-05-06 12:41 | 60.22353 | 21.63192 | 27013 ft | 434 kts | 81° |
| 2026-05-06 12:42 | 60.22951 | 21.69042 | 27008 ft | 422 kts | 81° |
| 2026-05-06 12:42 | 60.23531 | 21.74759 | 26980 ft | 411 kts | 81° |
| 2026-05-06 12:42 | 60.24102 | 21.80402 | 26570 ft | 413 kts | 81° |
| 2026-05-06 12:42 | 60.24684 | 21.86173 | 25793 ft | 427 kts | 81° |
| 2026-05-06 12:43 | 60.25278 | 21.92088 | 25047 ft | 439 kts | 80° |
| 2026-05-06 12:43 | 60.25885 | 21.98144 | 24581 ft | 440 kts | 80° |
| 2026-05-06 12:43 | 60.26514 | 22.04169 | 24254 ft | 437 kts | 78° |
| 2026-05-06 12:43 | 60.27212 | 22.10082 | 23883 ft | 430 kts | 78° |
| 2026-05-06 12:44 | 60.27838 | 22.15858 | 23257 ft | 425 kts | 79° |
| 2026-05-06 12:44 | 60.28422 | 22.21679 | 22600 ft | 421 kts | 79° |
| 2026-05-06 12:44 | 60.28986 | 22.27448 | 21994 ft | 416 kts | 79° |
| 2026-05-06 12:44 | 60.29538 | 22.33142 | 21383 ft | 411 kts | 80° |
| 2026-05-06 12:45 | 60.30073 | 22.38705 | 20802 ft | 405 kts | 79° |
| 2026-05-06 12:45 | 60.30606 | 22.44262 | 20213 ft | 400 kts | 79° |
| 2026-05-06 12:45 | 60.31647 | 22.55136 | 19054 ft | 389 kts | 79° |
| 2026-05-06 12:46 | 60.32157 | 22.60456 | 18480 ft | 384 kts | 79° |
| 2026-05-06 12:46 | 60.32656 | 22.65682 | 17943 ft | 378 kts | 79° |
| 2026-05-06 12:46 | 60.33149 | 22.70864 | 17388 ft | 372 kts | 79° |
| 2026-05-06 12:46 | 60.33628 | 22.75945 | 16873 ft | 366 kts | 79° |
| 2026-05-06 12:47 | 60.34095 | 22.80937 | 16482 ft | 355 kts | 79° |
| 2026-05-06 12:47 | 60.34543 | 22.85768 | 16118 ft | 345 kts | 79° |
| 2026-05-06 12:47 | 60.34976 | 22.90448 | 15759 ft | 336 kts | 78° |
| 2026-05-06 12:47 | 60.35403 | 22.95085 | 15409 ft | 339 kts | 78° |
| 2026-05-06 12:48 | 60.35839 | 22.99849 | 15048 ft | 344 kts | 78° |
| 2026-05-06 12:48 | 60.36274 | 23.04609 | 14688 ft | 344 kts | 78° |
| 2026-05-06 12:48 | 60.36702 | 23.09303 | 14440 ft | 343 kts | 78° |
| 2026-05-06 12:48 | 60.37137 | 23.14093 | 14186 ft | 341 kts | 78° |
| 2026-05-06 12:49 | 60.37560 | 23.18769 | 13937 ft | 339 kts | 78° |
| 2026-05-06 12:49 | 60.37986 | 23.23429 | 13688 ft | 337 kts | 77° |
| 2026-05-06 12:49 | 60.38479 | 23.28053 | 13437 ft | 334 kts | 76° |
| 2026-05-06 12:49 | 60.38966 | 23.32659 | 13185 ft | 332 kts | 77° |
| 2026-05-06 12:50 | 60.39408 | 23.37230 | 12934 ft | 330 kts | 77° |
| 2026-05-06 12:50 | 60.39819 | 23.41725 | 12687 ft | 328 kts | 78° |
| 2026-05-06 12:50 | 60.40226 | 23.46288 | 12435 ft | 326 kts | 78° |
| 2026-05-06 12:50 | 60.40621 | 23.50779 | 12185 ft | 324 kts | 78° |
| 2026-05-06 12:51 | 60.41008 | 23.55213 | 11936 ft | 322 kts | 78° |
| 2026-05-06 12:51 | 60.41394 | 23.59661 | 11685 ft | 319 kts | 78° |
| 2026-05-06 12:51 | 60.41773 | 23.64056 | 11436 ft | 317 kts | 78° |
| 2026-05-06 12:51 | 60.42154 | 23.68475 | 11183 ft | 315 kts | 78° |
| 2026-05-06 12:52 | 60.42525 | 23.72786 | 10934 ft | 312 kts | 78° |
| 2026-05-06 12:52 | 60.42898 | 23.77117 | 10682 ft | 309 kts | 78° |
| 2026-05-06 12:52 | 60.43267 | 23.81390 | 10431 ft | 306 kts | 78° |
| 2026-05-06 12:52 | 60.43626 | 23.85567 | 10184 ft | 303 kts | 78° |
| 2026-05-06 12:53 | 60.43978 | 23.89807 | 9931 ft | 300 kts | 80° |
| 2026-05-06 12:53 | 60.44228 | 23.93961 | 9680 ft | 294 kts | 82° |
| 2026-05-06 12:53 | 60.44438 | 23.98003 | 9431 ft | 288 kts | 82° |
| 2026-05-06 12:53 | 60.44652 | 24.01997 | 9181 ft | 284 kts | 82° |
| 2026-05-06 12:54 | 60.44868 | 24.05964 | 8929 ft | 280 kts | 81° |
| 2026-05-06 12:54 | 60.45152 | 24.09859 | 8677 ft | 277 kts | 79° |
| 2026-05-06 12:54 | 60.45481 | 24.13697 | 8426 ft | 276 kts | 78° |
| 2026-05-06 12:54 | 60.45804 | 24.17486 | 8178 ft | 275 kts | 78° |
| 2026-05-06 12:55 | 60.46123 | 24.21312 | 7928 ft | 277 kts | 79° |
| 2026-05-06 12:55 | 60.46442 | 24.25201 | 7676 ft | 276 kts | 79° |
| 2026-05-06 12:55 | 60.46750 | 24.29016 | 7426 ft | 274 kts | 79° |
| 2026-05-06 12:55 | 60.47050 | 24.32771 | 7177 ft | 272 kts | 79° |
| 2026-05-06 12:56 | 60.47349 | 24.36544 | 6927 ft | 271 kts | 79° |
| 2026-05-06 12:56 | 60.47647 | 24.40319 | 6676 ft | 270 kts | 79° |
| 2026-05-06 12:56 | 60.47944 | 24.44107 | 6424 ft | 269 kts | 79° |
| 2026-05-06 12:56 | 60.48234 | 24.47816 | 6175 ft | 268 kts | 79° |
| 2026-05-06 12:57 | 60.48565 | 24.51526 | 5921 ft | 268 kts | 77° |
| 2026-05-06 12:57 | 60.48919 | 24.55238 | 5670 ft | 268 kts | 78° |
| 2026-05-06 12:57 | 60.49247 | 24.58970 | 5378 ft | 265 kts | 79° |
| 2026-05-06 12:57 | 60.49543 | 24.62560 | 5192 ft | 254 kts | 79° |
| 2026-05-06 12:58 | 60.49816 | 24.66000 | 5049 ft | 236 kts | 80° |
| 2026-05-06 12:58 | 60.50061 | 24.69160 | 4865 ft | 222 kts | 80° |
| 2026-05-06 12:58 | 60.50294 | 24.72190 | 4558 ft | 215 kts | 80° |
| 2026-05-06 12:58 | 60.50520 | 24.75175 | 4170 ft | 212 kts | 81° |
| 2026-05-06 12:59 | 60.50742 | 24.78114 | 3750 ft | 212 kts | 81° |
| 2026-05-06 12:59 | 60.50963 | 24.81069 | 3333 ft | 211 kts | 81° |
| 2026-05-06 12:59 | 60.51181 | 24.83999 | 3069 ft | 209 kts | 81° |
| 2026-05-06 12:59 | 60.51394 | 24.86867 | 3002 ft | 209 kts | 82° |
| 2026-05-06 13:00 | 60.51612 | 24.89798 | 3040 ft | 210 kts | 82° |
| 2026-05-06 13:00 | 60.51829 | 24.92752 | 3035 ft | 212 kts | 82° |
| 2026-05-06 13:00 | 60.52050 | 24.95737 | 3019 ft | 212 kts | 82° |
| 2026-05-06 13:00 | 60.52266 | 24.98655 | 3007 ft | 211 kts | 82° |
| 2026-05-06 13:01 | 60.52485 | 25.01631 | 2999 ft | 211 kts | 82° |
| 2026-05-06 13:01 | 60.52701 | 25.04553 | 3005 ft | 211 kts | 82° |
| 2026-05-06 13:01 | 60.52920 | 25.07510 | 3017 ft | 212 kts | 82° |
| 2026-05-06 13:01 | 60.53129 | 25.10470 | 3005 ft | 212 kts | 85° |
| 2026-05-06 13:02 | 60.52984 | 25.13427 | 2973 ft | 209 kts | 110° |
| 2026-05-06 13:02 | 60.52304 | 25.15989 | 3002 ft | 206 kts | 128° |
| 2026-05-06 13:02 | 60.51341 | 25.18099 | 3010 ft | 200 kts | 140° |
| 2026-05-06 13:02 | 60.50314 | 25.19928 | 2997 ft | 196 kts | 143° |
| 2026-05-06 13:03 | 60.49294 | 25.21727 | 2985 ft | 192 kts | 142° |
| 2026-05-06 13:03 | 60.48306 | 25.23508 | 2980 ft | 188 kts | 142° |
| 2026-05-06 13:03 | 60.47313 | 25.25240 | 2977 ft | 186 kts | 147° |
| 2026-05-06 13:03 | 60.46164 | 25.26163 | 2941 ft | 179 kts | 184° |
| 2026-05-06 13:04 | 60.45090 | 25.25171 | 2960 ft | 170 kts | 229° |
| 2026-05-06 13:04 | 60.44394 | 25.23243 | 3025 ft | 170 kts | 233° |
| 2026-05-06 13:04 | 60.43631 | 25.21394 | 3018 ft | 170 kts | 231° |
| 2026-05-06 13:04 | 60.42860 | 25.19617 | 3007 ft | 170 kts | 230° |
| 2026-05-06 13:05 | 60.42067 | 25.17827 | 3000 ft | 170 kts | 230° |
| 2026-05-06 13:05 | 60.41284 | 25.16073 | 2995 ft | 170 kts | 230° |
| 2026-05-06 13:05 | 60.40487 | 25.14293 | 2936 ft | 166 kts | 230° |
| 2026-05-06 13:05 | 60.39730 | 25.12605 | 2619 ft | 163 kts | 230° |
| 2026-05-06 13:06 | 60.38958 | 25.10879 | 2092 ft | 168 kts | 230° |
| 2026-05-06 13:06 | 60.38173 | 25.09115 | 1678 ft | 169 kts | 230° |
| 2026-05-06 13:06 | 60.37374 | 25.07384 | 1429 ft | 170 kts | 229° |
| 2026-05-06 13:06 | 60.36580 | 25.05652 | 1211 ft | 168 kts | 229° |
| 2026-05-06 13:07 | 60.35795 | 25.03924 | 1007 ft | 166 kts | 229° |
| 2026-05-06 13:07 | 60.35015 | 25.02202 | 759 ft | 163 kts | 229° |
| 2026-05-06 13:07 | 60.34262 | 25.00542 | 541 ft | 158 kts | 229° |
| 2026-05-06 13:07 | 60.33545 | 24.98961 | 332 ft | 150 kts | 229° |
| 2026-05-06 13:08 | 60.32857 | 24.97443 | 192 ft | 137 kts | 229° |
| 2026-05-06 13:08 | 60.32339 | 24.96299 | 187 ft | 62 kts | 228° |
| 2026-05-06 13:08 | 60.32189 | 24.95966 | 187 ft | 28 kts | 226° |
| 2026-05-06 13:08 | 60.32067 | 24.95833 | 187 ft | 17 kts | 173° |
| 2026-05-06 13:09 | 60.32026 | 24.95862 | 187 ft | 0 kts | 144° |
| 2026-05-06 13:10 | 60.32022 | 24.95869 | 187 ft | 2 kts | 144° |
| 2026-05-06 13:10 | 60.32012 | 24.95884 | 187 ft | 2 kts | 144° |
| 2026-05-06 13:10 | 60.32002 | 24.95897 | 187 ft | 2 kts | 144° |
| 2026-05-06 13:10 | 60.31981 | 24.95929 | 187 ft | 9 kts | 144° |
| 2026-05-06 13:11 | 60.31927 | 24.96012 | 187 ft | 11 kts | 140° |
| 2026-05-06 13:11 | 60.31915 | 24.96121 | 187 ft | 6 kts | 56° |
| 2026-05-06 13:11 | 60.31938 | 24.96186 | 187 ft | 6 kts | 50° |
| 2026-05-06 13:11 | 60.31973 | 24.96269 | 187 ft | 8 kts | 47° |
| 2026-05-06 13:12 | 60.32013 | 24.96354 | 187 ft | 8 kts | 46° |
| 2026-05-06 13:12 | 60.32056 | 24.96444 | 187 ft | 9 kts | 44° |
| 2026-05-06 13:12 | 60.32100 | 24.96531 | 187 ft | 9 kts | 45° |
| 2026-05-06 13:12 | 60.32139 | 24.96621 | 187 ft | 8 kts | 52° |
| 2026-05-06 13:13 | 60.32174 | 24.96707 | 187 ft | 0 kts | 49° |
| 2026-05-06 13:13 | 60.32178 | 24.96749 | 187 ft | 3 kts | 91° |
| 2026-05-06 13:13 | 60.32178 | 24.96773 | 187 ft | 7 kts | 96° |
| 2026-05-06 13:14 | 60.32130 | 24.96868 | 187 ft | 8 kts | 150° |
| 2026-05-06 13:14 | 60.32081 | 24.96924 | 187 ft | 9 kts | 150° |
| 2026-05-06 13:14 | 60.32036 | 24.96975 | 187 ft | 7 kts | 151° |
| 2026-05-06 13:14 | 60.31971 | 24.97041 | 187 ft | 11 kts | 154° |
| 2026-05-06 13:15 | 60.31898 | 24.97116 | 187 ft | 12 kts | 152° |
| 2026-05-06 13:15 | 60.31824 | 24.97195 | 187 ft | 13 kts | 152° |
| 2026-05-06 13:15 | 60.31744 | 24.97279 | 187 ft | 13 kts | 152° |
| 2026-05-06 13:15 | 60.31670 | 24.97357 | 187 ft | 2 kts | 149° |
| 2026-05-06 13:16 | 60.31644 | 24.97374 | 187 ft | 7 kts | 181° |
| 2026-05-06 13:16 | 60.31621 | 24.97355 | 187 ft | 3 kts | 219° |
| 2026-05-06 13:16 | 60.31607 | 24.97323 | 187 ft | 3 kts | 235° |
| 2026-05-06 13:16 | 60.31601 | 24.97305 | 187 ft | 0 kts | 236° |